Time;durP1;ratioP1;P1;durP2;ratioP2;P2;SDS_P1;SDS_P2;PMS_P1;PMS_P2;Temp;Humidity;BMP_temperature;BMP_pressure;BME280_temperature;BME280_humidity;BME280_pressure;Samples;Min_cycle;Max_cycle;Signal;HPM_P1;HPM_P2
2022/07/19 00:00:46;;;;;;;;;10.00;10.00;;;;;30.28;45.96;101251.09;6344654;22;47237;-96
2022/07/19 00:03:12;;;;;;;;;12.33;9.67;;;;;30.23;45.79;101251.22;6317137;22;45234;-95
2022/07/19 00:05:38;;;;;;;;;7.00;7.00;;;;;30.20;46.17;101253.16;6318017;22;45269;-96
2022/07/19 00:08:03;;;;;;;;;8.00;8.00;;;;;30.28;45.80;101266.47;6317215;22;45499;-96
2022/07/19 00:10:29;;;;;;;;;7.00;7.00;;;;;30.20;46.01;101254.03;6313169;22;46904;-96
2022/07/19 00:12:54;;;;;;;;;9.00;9.00;;;;;30.20;46.38;101262.16;6311386;22;45238;-96
2022/07/19 00:15:20;;;;;;;;;8.33;8.00;;;;;30.15;46.17;101253.31;6311903;22;45259;-95
2022/07/19 00:17:47;;;;;;;;;8.00;7.67;;;;;30.14;46.14;101248.81;6312047;22;45494;-96
2022/07/19 00:20:15;;;;;;;;;9.33;9.00;;;;;30.03;46.42;101238.28;6336995;22;47323;-96
2022/07/19 00:22:40;;;;;;;;;11.67;10.00;;;;;30.01;46.68;101242.88;6337344;22;45838;-96
2022/07/19 00:25:06;;;;;;;;;8.33;8.33;;;;;30.02;46.46;101241.94;6311259;22;45235;-96
2022/07/19 00:27:32;;;;;;;;;7.00;7.00;;;;;29.94;46.82;101238.56;6312018;22;45195;-96
2022/07/19 00:29:58;;;;;;;;;9.00;9.00;;;;;29.92;46.90;101241.31;6312358;22;47057;-96
2022/07/19 00:32:23;;;;;;;;;8.33;7.67;;;;;29.89;46.69;101241.41;6310553;22;45617;-95
2022/07/19 00:34:48;;;;;;;;;9.33;9.00;;;;;29.80;47.18;101237.16;6308293;22;45370;-96
2022/07/19 00:37:14;;;;;;;;;12.00;9.00;;;;;29.82;47.05;101250.66;6309058;22;45404;-96
2022/07/19 00:39:39;;;;;;;;;9.67;9.67;;;;;29.76;47.08;101249.00;6308229;22;47063;-96
2022/07/19 00:42:04;;;;;;;;;9.00;9.00;;;;;29.70;47.17;101235.59;6309135;22;45231;-96
2022/07/19 00:44:30;;;;;;;;;9.33;8.33;;;;;29.66;47.22;101237.50;6308832;22;45353;-96
2022/07/19 00:46:56;;;;;;;;;9.00;9.00;;;;;29.75;47.46;101253.50;6309194;22;45520;-95
2022/07/19 00:49:22;;;;;;;;;10.33;10.00;;;;;29.70;47.81;101250.00;6334655;22;46946;-95
2022/07/19 00:51:47;;;;;;;;;7.00;7.00;;;;;29.51;47.62;101222.56;6308608;22;45720;-96
2022/07/19 00:54:13;;;;;;;;;11.00;10.00;;;;;29.52;47.57;101229.75;6308289;22;45367;-96
2022/07/19 00:56:40;;;;;;;;;7.67;7.00;;;;;29.47;47.35;101229.00;6310163;22;45391;-96
2022/07/19 00:59:08;;;;;;;;;10.67;9.00;;;;;29.41;47.91;101224.63;6335056;22;47173;-95
2022/07/19 01:01:33;;;;;;;;;9.00;9.00;;;;;29.31;47.89;101215.88;6309475;22;45185;-96
2022/07/19 01:03:59;;;;;;;;;10.00;7.33;;;;;29.38;48.21;101238.25;6314423;22;45891;-96
2022/07/19 01:06:25;;;;;;;;;9.00;9.00;;;;;29.24;48.01;101220.59;6314184;22;45337;-96
2022/07/19 01:08:50;;;;;;;;;9.00;9.00;;;;;29.17;48.02;101216.28;6339373;22;46968;-96
2022/07/19 01:11:16;;;;;;;;;9.00;8.00;;;;;29.31;48.36;101248.31;6311443;22;45390;-96
2022/07/19 01:13:41;;;;;;;;;8.00;8.00;;;;;29.20;48.28;101221.56;6310323;22;45428;-96
2022/07/19 01:16:07;;;;;;;;;9.00;6.67;;;;;29.11;48.56;101210.09;6311157;22;45453;-96
2022/07/19 01:18:32;;;;;;;;;11.00;9.67;;;;;29.00;48.82;101194.13;6308152;22;46870;-96
2022/07/19 01:20:58;;;;;;;;;9.67;7.00;;;;;29.11;48.63;101223.59;6335346;22;45324;-96
2022/07/19 01:23:24;;;;;;;;;12.00;9.00;;;;;29.02;48.65;101222.94;6302456;22;45459;-96
2022/07/19 01:25:50;;;;;;;;;9.00;9.00;;;;;28.94;48.63;101218.56;6302684;22;45283;-96
2022/07/19 01:28:16;;;;;;;;;9.33;7.67;;;;;28.84;49.34;101208.91;6303292;22;46881;-95
2022/07/19 01:30:41;;;;;;;;;8.00;7.00;;;;;28.85;48.97;101213.41;6303362;22;45625;-95
2022/07/19 01:33:07;;;;;;;;;8.67;8.00;;;;;28.73;49.35;101202.00;6302691;22;45413;-95
2022/07/19 01:35:32;;;;;;;;;8.00;8.00;;;;;28.75;49.30;101210.94;6302399;22;45202;-96
2022/07/19 01:37:58;;;;;;;;;9.00;7.67;;;;;28.77;49.16;101219.00;6303765;22;47956;-96
2022/07/19 01:40:23;;;;;;;;;8.00;8.00;;;;;28.79;49.13;101225.25;6309974;22;45614;-96
2022/07/19 01:42:50;;;;;;;;;8.33;7.00;;;;;28.63;48.99;101197.75;6312183;22;45355;-95
2022/07/19 01:45:16;;;;;;;;;8.67;7.67;;;;;28.73;48.98;101215.50;6312319;22;44796;-95
2022/07/19 01:47:42;;;;;;;;;8.00;5.67;;;;;28.72;49.30;101218.22;6312008;22;47941;-96
2022/07/19 01:50:09;;;;;;;;;10.00;7.00;;;;;28.58;49.32;101194.25;6312782;22;45565;-96
2022/07/19 01:52:34;;;;;;;;;5.67;5.67;;;;;28.70;49.31;101212.88;6314526;22;44773;-96
2022/07/19 01:55:00;;;;;;;;;7.33;7.33;;;;;28.53;49.30;101180.84;6315337;22;45377;-96
2022/07/19 01:57:26;;;;;;;;;10.33;8.00;;;;;28.63;49.45;101208.53;6315062;22;46823;-96
2022/07/19 01:59:52;;;;;;;;;6.67;6.00;;;;;28.50;49.58;101183.63;6315428;22;45352;-96
2022/07/19 02:02:17;;;;;;;;;6.00;6.00;;;;;28.58;49.24;101199.66;6312911;22;45257;-96
2022/07/19 02:04:43;;;;;;;;;8.00;6.00;;;;;28.62;49.24;101206.75;6308162;22;45262;-96
2022/07/19 02:07:08;;;;;;;;;5.67;5.67;;;;;28.57;49.62;101198.75;6310326;22;47154;-95
2022/07/19 02:09:33;;;;;;;;;6.67;6.67;;;;;28.23;49.36;101193.19;6307672;22;45176;-96
2022/07/19 02:11:59;;;;;;;;;7.00;5.33;;;;;28.23;49.22;101195.88;6306563;22;45632;-96
2022/07/19 02:14:24;;;;;;;;;8.00;8.00;;;;;28.48;49.01;101189.06;6305608;22;45360;-96
2022/07/19 02:16:50;;;;;;;;;6.00;6.00;;;;;28.61;48.77;101204.97;6305688;22;47160;-96
2022/07/19 02:19:15;;;;;;;;;6.00;6.00;;;;;28.60;48.96;101203.19;6305437;22;45565;-96
2022/07/19 02:21:40;;;;;;;;;8.67;6.67;;;;;28.63;48.51;101208.53;6305447;22;45495;-96
2022/07/19 02:24:07;;;;;;;;;6.00;6.00;;;;;28.56;48.84;101188.88;6304919;22;45711;-96
2022/07/19 02:26:33;;;;;;;;;6.00;6.00;;;;;28.54;48.70;101182.63;6305810;22;48218;-96
2022/07/19 02:28:58;;;;;;;;;7.00;6.00;;;;;28.55;49.13;101187.13;6307398;22;45426;-96
2022/07/19 02:31:24;;;;;;;;;5.00;5.00;;;;;28.54;48.66;101188.03;6305890;22;45354;-95
2022/07/19 02:33:49;;;;;;;;;5.00;5.00;;;;;28.52;48.81;101188.06;6306007;22;45599;-96
2022/07/19 02:36:15;;;;;;;;;6.67;5.00;;;;;28.56;48.97;101191.56;6303971;22;47983;-96
2022/07/19 02:38:41;;;;;;;;;5.33;5.33;;;;;28.46;48.72;101172.00;6304502;22;45400;-96
2022/07/19 02:41:06;;;;;;;;;8.00;5.00;;;;;28.42;49.01;101170.28;6305135;22;45262;-96
2022/07/19 02:43:32;;;;;;;;;5.67;5.67;;;;;28.40;49.41;101158.63;6308646;22;45262;-96
2022/07/19 02:45:57;;;;;;;;;8.67;6.33;;;;;28.34;49.13;101152.47;6307674;22;47809;-96
2022/07/19 02:48:23;;;;;;;;;6.00;5.00;;;;;28.42;49.23;101167.59;6307905;22;44797;-96
2022/07/19 02:50:49;;;;;;;;;11.33;7.67;;;;;28.30;49.46;101153.44;6306475;22;45359;-96
2022/07/19 02:53:15;;;;;;;;;7.67;6.00;;;;;28.32;49.54;101158.81;6306524;22;45251;-96
2022/07/19 02:55:40;;;;;;;;;8.00;4.33;;;;;28.27;49.94;101163.44;6306546;22;46876;-95
2022/07/19 02:58:06;;;;;;;;;4.00;3.33;;;;;28.19;49.64;101148.28;6308380;22;45459;-96
2022/07/19 03:00:31;;;;;;;;;7.67;5.67;;;;;28.25;49.37;101162.56;6307856;22;45442;-96
2022/07/19 03:03:43;;;;;;;;;6.33;6.00;;;;;28.15;49.66;101154.69;6308469;22;44870;-96
2022/07/19 03:05:47;;;;;;;;;4.67;4.67;;;;;28.17;49.76;101160.91;6311065;22;45893;-96
2022/07/19 03:08:12;;;;;;;;;7.67;7.00;;;;;28.11;49.90;101163.78;6310065;22;45403;-96
2022/07/19 03:10:38;;;;;;;;;9.67;7.00;;;;;28.02;50.10;101147.78;6312601;22;45401;-96
2022/07/19 03:13:03;;;;;;;;;6.00;6.00;;;;;28.11;50.30;101171.88;6312607;22;45269;-96
2022/07/19 03:15:29;;;;;;;;;8.00;7.33;;;;;27.96;49.86;101154.22;6312111;22;47071;-96
2022/07/19 03:17:55;;;;;;;;;7.00;7.00;;;;;27.94;50.13;101156.91;6314466;22;45275;-96
2022/07/19 03:20:20;;;;;;;;;4.00;4.00;;;;;27.85;50.26;101149.03;6313342;22;45293;-96
2022/07/19 03:22:47;;;;;;;;;7.00;6.00;;;;;28.00;50.13;101177.50;6321407;22;45559;-96
2022/07/19 03:25:12;;;;;;;;;5.67;4.33;;;;;27.79;50.14;101141.91;6367704;22;47100;-96
2022/07/19 03:27:38;;;;;;;;;5.33;5.33;;;;;27.78;50.16;101148.25;6369262;22;45359;-96
2022/07/19 03:30:05;;;;;;;;;7.33;6.00;;;;;27.83;50.60;101165.22;6343261;22;45506;-96
2022/07/19 03:32:30;;;;;;;;;7.00;5.67;;;;;27.67;50.56;101146.66;6344205;22;45378;-96
2022/07/19 03:34:56;;;;;;;;;5.00;5.00;;;;;27.76;50.18;101161.75;6346788;22;46912;-96
2022/07/19 03:37:21;;;;;;;;;8.00;7.67;;;;;27.65;50.17;101151.19;6350402;22;45253;-96
2022/07/19 03:39:47;;;;;;;;;5.00;5.00;;;;;27.74;49.78;101168.09;6351503;22;44720;-96
2022/07/19 03:42:12;;;;;;;;;8.00;6.00;;;;;27.72;50.44;101167.25;6351989;22;45316;-96
2022/07/19 03:44:37;;;;;;;;;5.00;5.00;;;;;27.74;50.29;101163.59;6352566;22;46923;-96
2022/07/19 03:47:03;;;;;;;;;6.33;5.33;;;;;27.69;50.50;101157.41;6352177;22;45191;-96
2022/07/19 03:49:30;;;;;;;;;7.33;6.00;;;;;27.62;50.66;101139.59;6350620;22;45451;-96
2022/07/19 03:51:55;;;;;;;;;6.00;6.00;;;;;27.59;50.77;101139.63;6348642;22;45517;-96
2022/07/19 03:54:21;;;;;;;;;4.67;4.67;;;;;27.65;50.52;101153.88;6350884;22;46043;-96
2022/07/19 03:56:47;;;;;;;;;5.00;4.00;;;;;27.73;50.78;101164.50;6350420;22;45218;-96
2022/07/19 03:59:12;;;;;;;;;7.33;6.67;;;;;27.60;50.63;101145.00;6345701;22;45504;-96
2022/07/19 04:01:37;;;;;;;;;7.00;6.00;;;;;27.60;51.11;101152.22;6346304;22;45444;-96
2022/07/19 04:04:04;;;;;;;;;6.33;6.33;;;;;27.50;51.03;101144.28;6346696;22;46488;-96
2022/07/19 04:06:30;;;;;;;;;6.00;6.00;;;;;27.51;50.86;101145.19;6347403;22;45203;-96
2022/07/19 04:08:55;;;;;;;;;7.00;4.67;;;;;27.52;50.98;101150.53;6346185;22;45354;-96
2022/07/19 04:11:20;;;;;;;;;7.00;6.00;;;;;27.45;50.87;101141.69;6348190;22;45729;-96
2022/07/19 04:13:46;;;;;;;;;6.67;6.00;;;;;27.51;51.06;101155.97;6347599;22;46889;-96
2022/07/19 04:16:11;;;;;;;;;9.67;7.33;;;;;27.59;51.31;101163.91;6344848;22;45817;-96
2022/07/19 04:18:38;;;;;;;;;8.67;6.00;;;;;27.52;50.96;101163.16;6344676;22;45492;-96
2022/07/19 04:21:04;;;;;;;;;7.67;5.67;;;;;27.43;51.06;101148.03;6345560;22;45170;-96
2022/07/19 04:23:30;;;;;;;;;7.67;6.67;;;;;27.43;50.77;101138.16;6371553;22;47176;-96
2022/07/19 04:25:55;;;;;;;;;7.67;6.33;;;;;27.40;50.87;101134.59;6316748;22;45163;-96
2022/07/19 04:28:21;;;;;;;;;6.33;6.33;;;;;27.41;50.95;101140.00;6319083;22;45199;-96
2022/07/19 04:30:46;;;;;;;;;7.00;6.00;;;;;27.38;50.96;101134.66;6324612;22;44892;-96
2022/07/19 04:33:16;;;;;;;;;6.00;5.67;;;;;27.40;50.89;101131.91;6323280;22;45996;-96
2022/07/19 04:35:43;;;;;;;;;5.33;5.33;;;;;27.39;51.05;101132.84;6325565;22;45673;-96
2022/07/19 04:38:09;;;;;;;;;4.00;4.00;;;;;27.41;50.98;101139.09;6295888;22;45238;-96
2022/07/19 04:40:38;;;;;;;;;8.00;8.00;;;;;27.43;50.97;101139.94;6347391;22;45367;-96
2022/07/19 04:43:12;;;;;;;;;6.00;6.00;;;;;27.43;51.13;101135.44;6319443;22;46985;-96
2022/07/19 04:45:40;;;;;;;;;5.67;5.67;;;;;27.45;50.93;101132.72;6319212;22;45858;-96
2022/07/19 04:48:06;;;;;;;;;6.00;5.00;;;;;27.44;51.23;101133.66;6319364;22;45265;-96
2022/07/19 04:50:36;;;;;;;;;7.00;7.00;;;;;27.48;51.32;101138.06;6350383;22;45379;-96
2022/07/19 04:53:01;;;;;;;;;5.33;5.33;;;;;27.50;51.43;101130.81;6317969;22;47300;-96
2022/07/19 04:55:27;;;;;;;;;8.33;6.67;;;;;27.54;51.17;101137.03;6319760;22;45256;-96
2022/07/19 04:57:52;;;;;;;;;5.00;5.00;;;;;27.55;51.34;101134.31;6320849;22;45120;-96
2022/07/19 05:00:19;;;;;;;;;8.00;5.67;;;;;27.61;51.27;101136.00;6319359;22;45368;-96
2022/07/19 05:02:45;;;;;;;;;7.33;5.67;;;;;27.59;51.50;101124.38;6345662;22;47496;-96
2022/07/19 05:05:13;;;;;;;;;7.33;5.33;;;;;27.76;51.73;101144.69;6292554;22;45436;-96
2022/07/19 05:07:40;;;;;;;;;6.00;6.00;;;;;27.66;51.73;101128.69;6316629;22;45279;-96
2022/07/19 05:10:06;;;;;;;;;6.00;6.00;;;;;27.77;51.72;101135.69;6314950;22;44836;-96
2022/07/19 05:12:32;;;;;;;;;1.33;1.00;;;;;27.75;51.74;101124.94;6313511;22;47405;-96
2022/07/19 05:14:58;;;;;;;;;8.00;8.00;;;;;27.80;52.01;101130.25;6312698;22;45439;-96
2022/07/19 05:17:24;;;;;;;;;5.33;5.00;;;;;27.92;51.63;101145.28;6315510;22;45434;-96
2022/07/19 05:19:49;;;;;;;;;12.00;9.00;;;;;27.99;51.32;101146.03;6313281;22;45423;-96
2022/07/19 05:22:14;;;;;;;;;9.67;7.67;;;;;28.03;51.63;101145.06;6313871;22;47095;-96
2022/07/19 05:24:40;;;;;;;;;9.00;6.67;;;;;28.07;51.52;101138.66;6330033;22;45671;-96
2022/07/19 05:27:05;;;;;;;;;8.67;8.00;;;;;28.04;51.32;101121.66;6348298;22;45583;-96
2022/07/19 05:29:31;;;;;;;;;8.67;7.67;;;;;28.11;50.96;101120.59;6347137;22;45395;-96
2022/07/19 05:31:56;;;;;;;;;8.67;7.00;;;;;28.28;51.47;101133.69;6347143;22;47341;-95
2022/07/19 05:34:21;;;;;;;;;6.00;6.00;;;;;28.26;51.33;101124.75;6346114;22;45601;-96
2022/07/19 05:36:47;;;;;;;;;6.67;6.00;;;;;28.39;51.75;101133.47;6346703;22;45461;-96
2022/07/19 05:39:12;;;;;;;;;7.33;7.00;;;;;28.36;51.22;101122.72;6345821;22;45437;-95
2022/07/19 05:41:37;;;;;;;;;9.00;8.00;;;;;28.53;51.28;101129.53;6343060;22;46851;-96
2022/07/19 05:44:03;;;;;;;;;8.67;7.00;;;;;28.53;51.53;101121.44;6344862;22;44661;-95
2022/07/19 05:46:28;;;;;;;;;10.00;8.00;;;;;28.60;51.28;101123.09;6344737;22;45162;-96
2022/07/19 05:48:54;;;;;;;;;8.33;8.00;;;;;28.66;51.40;101113.94;6341575;22;45552;-96
2022/07/19 05:51:19;;;;;;;;;9.00;9.00;;;;;28.72;51.53;101113.78;6335876;22;47467;-96
2022/07/19 05:53:45;;;;;;;;;10.00;8.67;;;;;28.80;51.43;101108.19;6335898;22;45748;-95
2022/07/19 05:56:10;;;;;;;;;9.00;6.67;;;;;28.89;51.61;101115.16;6341135;22;45309;-96
2022/07/19 05:58:36;;;;;;;;;8.33;8.33;;;;;29.04;51.52;101118.38;6340372;22;45715;-96
2022/07/19 06:01:19;;;;;;;;;8.33;7.33;;;;;29.17;51.96;101122.53;6344118;22;46858;-96
2022/07/19 06:03:56;;;;;;;;;12.00;11.00;;;;;29.28;51.24;101127.66;6306493;22;46036;-96
2022/07/19 06:06:23;;;;;;;;;9.00;9.00;;;;;29.30;51.29;101108.72;6277283;22;45172;-95
2022/07/19 06:08:49;;;;;;;;;9.67;8.33;;;;;29.44;50.76;101113.72;6303408;22;45352;-95
2022/07/19 06:11:16;;;;;;;;;12.00;9.00;;;;;29.53;50.37;101110.72;6303756;22;47847;-96
2022/07/19 06:13:46;;;;;;;;;10.00;9.00;;;;;29.76;50.05;101129.97;6277109;22;45819;-95
2022/07/19 06:16:11;;;;;;;;;11.67;10.00;;;;;29.82;49.75;101116.25;6305059;22;45220;-96
2022/07/19 06:18:38;;;;;;;;;7.33;5.33;;;;;29.84;49.20;101100.00;6277416;22;45574;-95
2022/07/19 06:21:07;;;;;;;;;12.67;11.00;;;;;30.10;48.87;101126.22;6303855;22;47491;-96
2022/07/19 06:23:39;;;;;;;;;10.33;8.33;;;;;30.21;48.62;101111.47;6279540;22;45450;-96
2022/07/19 06:26:07;;;;;;;;;10.00;9.00;;;;;30.30;48.01;101104.88;6306047;22;45692;-96
2022/07/19 06:28:51;;;;;;;;;12.00;8.00;;;;;30.29;48.06;101081.44;6313103;22;45419;-96
2022/07/19 06:31:17;;;;;;;;;8.67;8.00;;;;;30.47;48.00;101090.81;6274221;22;45499;-95
2022/07/19 06:34:03;;;;;;;;;10.67;9.67;;;;;30.67;48.13;101100.97;6306510;22;45423;-96
2022/07/19 06:36:57;;;;;;;;;9.00;9.00;;;;;30.64;47.98;101076.69;6308004;22;45344;-96
2022/07/19 06:39:22;;;;;;;;;9.00;8.67;;;;;30.88;47.71;101102.97;6308232;22;45405;-96
2022/07/19 06:41:48;;;;;;;;;9.00;9.00;;;;;30.80;47.55;101068.03;6308444;22;47069;-95
2022/07/19 06:44:58;;;;;;;;;10.33;9.67;;;;;31.08;47.10;101093.31;6313892;22;45064;-96
2022/07/19 06:48:17;;;;;;;;;;;;;;;;;;;;;
2022/07/19 06:51:54;;;;;;;;;8.00;7.67;;;;;31.12;46.73;101062.44;6241814;22;70908;-96
2022/07/19 06:54:41;;;;;;;;;11.00;11.00;;;;;31.44;46.81;101097.41;6121504;23;47463;-96
2022/07/19 06:57:31;;;;;;;;;12.00;10.33;;;;;31.52;46.30;101100.75;6095677;23;45761;-95
2022/07/19 07:00:21;;;;;;;;;10.67;10.67;;;;;31.52;46.15;101089.00;6103984;23;45390;-96
2022/07/19 07:02:50;;;;;;;;;12.00;9.33;;;;;31.65;46.35;101095.72;6120734;23;45678;-95
2022/07/19 07:05:15;;;;;;;;;9.67;9.67;;;;;31.64;46.56;101079.53;6119185;23;47062;-95
2022/07/19 07:07:41;;;;;;;;;8.00;8.00;;;;;31.82;46.09;101096.03;6094420;23;45490;-94
2022/07/19 07:10:08;;;;;;;;;10.00;10.00;;;;;31.87;46.24;101086.75;6094369;23;45362;-95
2022/07/19 07:13:08;;;;;;;;;4.33;3.33;;;;;32.06;45.65;101105.00;6094980;23;45446;-96
2022/07/19 07:15:33;;;;;;;;;10.67;8.00;;;;;32.00;45.85;101079.03;6094932;23;46915;-95
2022/07/19 07:17:58;;;;;;;;;10.00;10.00;;;;;32.14;46.02;101080.28;6119780;23;45617;-95
2022/07/19 07:20:24;;;;;;;;;9.67;9.00;;;;;32.29;45.29;101083.34;6098521;23;45572;-95
2022/07/19 07:22:50;;;;;;;;;9.33;8.67;;;;;32.36;45.88;101092.09;6124501;23;45259;-95
2022/07/19 07:25:15;;;;;;;;;11.33;9.67;;;;;32.40;45.87;101077.44;6125667;23;48328;-96
2022/07/19 07:27:41;;;;;;;;;9.00;9.00;;;;;32.47;45.71;101072.66;6177963;23;45537;-94
2022/07/19 07:30:07;;;;;;;;;10.33;10.33;;;;;32.57;45.31;101076.75;6262625;22;45242;-95
2022/07/19 07:32:32;;;;;;;;;9.00;8.67;;;;;32.70;45.43;101076.25;6302866;22;45511;-92
2022/07/19 07:34:58;;;;;;;;;10.50;9.00;;;;;32.79;45.70;101078.53;6301825;22;47245;-89
2022/07/19 07:37:23;;;;;;;;;9.67;9.67;;;;;32.88;45.23;101075.41;6301308;22;45585;-90
2022/07/19 07:39:49;;;;;;;;;10.33;9.33;;;;;32.93;45.13;101068.91;6301307;22;45694;-90
2022/07/19 07:42:14;;;;;;;;;10.33;9.67;;;;;33.05;44.84;101070.19;6297867;22;45471;-90
2022/07/19 07:44:40;;;;;;;;;10.00;8.33;;;;;33.07;45.06;101074.59;6304026;22;46336;-90
2022/07/19 07:47:08;;;;;;;;;11.00;8.33;;;;;33.09;45.26;101059.09;6301008;22;45240;-92
2022/07/19 07:49:34;;;;;;;;;11.67;10.67;;;;;33.21;44.50;101060.38;6302972;22;45287;-90
2022/07/19 07:51:59;;;;;;;;;9.67;9.67;;;;;33.34;44.86;101054.41;6301933;22;45186;-91
2022/07/19 07:54:25;;;;;;;;;9.67;9.00;;;;;33.45;44.51;101054.75;6299433;22;47114;-89
2022/07/19 07:56:50;;;;;;;;;10.33;10.33;;;;;33.48;44.47;101051.00;6301734;22;45299;-92
2022/07/19 07:59:15;;;;;;;;;10.67;10.33;;;;;33.58;43.67;101048.72;6301305;22;45343;-88
2022/07/19 08:01:42;;;;;;;;;10.33;8.33;;;;;33.65;43.55;101042.06;6300469;22;45446;-91
2022/07/19 08:04:08;;;;;;;;;8.67;6.67;;;;;33.73;43.61;101038.97;6299796;22;45526;-91
2022/07/19 08:06:34;;;;;;;;;12.00;9.33;;;;;33.50;44.01;101038.25;6301271;22;45355;-89
2022/07/19 08:08:59;;;;;;;;;11.33;11.33;;;;;33.70;44.01;101033.69;6298809;22;45328;-89
2022/07/19 08:11:24;;;;;;;;;12.00;9.67;;;;;33.72;43.53;101039.03;6302014;22;45498;-88
2022/07/19 08:13:49;;;;;;;;;10.00;9.00;;;;;33.85;43.14;101042.06;6301210;22;51880;-91
2022/07/19 08:16:16;;;;;;;;;12.00;11.00;;;;;33.99;42.70;101041.41;6302271;22;45315;-88
2022/07/19 08:18:42;;;;;;;;;7.67;7.67;;;;;34.04;42.96;101030.28;6298704;22;45444;-89
2022/07/19 08:21:07;;;;;;;;;9.00;9.00;;;;;34.15;42.43;101040.63;6302613;22;45308;-92
2022/07/19 08:23:32;;;;;;;;;10.33;8.33;;;;;34.20;42.51;101025.81;6298045;22;48322;-88
2022/07/19 08:25:58;;;;;;;;;10.67;10.67;;;;;34.30;43.49;101028.94;6301955;22;45245;-89
2022/07/19 08:28:23;;;;;;;;;9.67;9.67;;;;;34.38;42.91;101028.56;6299491;22;45408;-90
2022/07/19 08:30:48;;;;;;;;;11.67;10.33;;;;;34.44;42.72;101027.38;6299383;22;45289;-93
2022/07/19 08:33:14;;;;;;;;;13.00;11.00;;;;;34.50;42.91;101018.91;6301942;22;50040;-89
2022/07/19 08:35:39;;;;;;;;;10.00;10.00;;;;;34.64;42.68;101017.25;6300136;22;45335;-90
2022/07/19 08:38:04;;;;;;;;;11.67;9.67;;;;;34.68;42.67;100999.81;6296534;22;55140;-93
2022/07/19 08:40:33;;;;;;;;;10.67;8.67;;;;;34.84;42.28;101016.25;6325965;22;45285;-92
2022/07/19 08:43:01;;;;;;;;;10.00;10.00;;;;;34.85;41.52;101011.66;6301229;22;45437;-90
2022/07/19 08:45:29;;;;;;;;;10.67;10.00;;;;;34.93;41.34;101013.97;6302077;22;45437;-91
2022/07/19 08:47:55;;;;;;;;;9.33;9.33;;;;;34.97;41.44;101005.53;6299554;22;45267;-90
2022/07/19 08:50:21;;;;;;;;;9.00;9.00;;;;;35.02;41.49;101008.03;6328609;22;45546;-93
2022/07/19 08:52:48;;;;;;;;;8.33;8.33;;;;;35.13;41.17;101001.13;6326702;22;47261;-92
2022/07/19 08:55:13;;;;;;;;;12.00;8.67;;;;;35.21;40.84;101007.88;6293677;22;45473;-92
2022/07/19 08:57:57;;;;;;;;;8.33;8.33;;;;;35.36;40.27;101001.69;6300076;22;45411;-92
2022/07/19 09:00:26;;;;;;;;;11.33;10.33;;;;;35.51;40.81;101000.84;6299669;22;45610;-91
2022/07/19 09:02:53;;;;;;;;;12.00;10.00;;;;;35.57;40.89;100996.84;6294965;22;47256;-90
2022/07/19 09:05:19;;;;;;;;;10.00;10.00;;;;;35.68;40.93;100998.97;6298581;22;45289;-94
2022/07/19 09:08:06;;;;;;;;;11.00;11.00;;;;;35.79;40.39;100984.69;6299904;22;45303;-94
2022/07/19 09:10:33;;;;;;;;;16.00;13.67;;;;;35.92;40.35;100995.81;6295077;22;45388;-92
2022/07/19 09:13:03;;;;;;;;;10.33;10.33;;;;;36.05;40.81;101001.44;6300633;22;45659;-90
2022/07/19 09:15:42;;;;;;;;;8.67;8.67;;;;;36.19;40.82;100996.97;6300938;22;45245;-92
2022/07/19 09:18:18;;;;;;;;;7.67;7.33;;;;;36.26;40.13;100981.97;6299544;22;45395;-92
2022/07/19 09:20:44;;;;;;;;;8.00;8.00;;;;;36.42;39.81;100976.47;6302932;22;45381;-91
2022/07/19 09:23:10;;;;;;;;;11.67;11.67;;;;;36.56;39.33;100986.56;6299817;22;47891;-90
2022/07/19 09:25:39;;;;;;;;;10.00;10.00;;;;;36.63;39.44;100972.50;6299299;22;45325;-92
2022/07/19 09:28:05;;;;;;;;;9.67;9.67;;;;;36.80;39.90;100984.25;6299324;22;45268;-91
2022/07/19 09:30:36;;;;;;;;;12.00;10.00;;;;;36.92;39.12;100979.88;6301588;22;45410;-91
2022/07/19 09:33:10;;;;;;;;;11.33;10.33;;;;;37.01;38.42;100971.06;6333925;22;45538;-91
2022/07/19 09:35:40;;;;;;;;;11.33;10.00;;;;;37.11;39.36;100964.03;6306332;22;45567;-91
2022/07/19 09:38:23;;;;;;;;;9.67;9.67;;;;;37.30;39.39;100964.69;6299411;22;45278;-91
2022/07/19 09:40:50;;;;;;;;;12.33;9.67;;;;;37.47;38.92;100966.38;6305883;22;45520;-91
2022/07/19 09:43:17;;;;;;;;;7.67;7.00;;;;;37.82;37.82;100958.59;6303518;22;47297;-91
2022/07/19 09:45:43;;;;;;;;;8.33;8.00;;;;;38.04;38.27;100952.56;6305190;22;45701;-91
2022/07/19 09:48:08;;;;;;;;;7.33;7.33;;;;;38.14;37.32;100955.56;6332987;22;45715;-91
2022/07/19 09:50:47;;;;;;;;;8.67;7.00;;;;;38.21;37.34;100947.78;6335267;22;45349;-96
2022/07/19 09:53:13;;;;;;;;;12.50;9.00;;;;;38.32;36.45;100947.88;6304056;22;46960;-96
2022/07/19 09:55:38;;;;;;;;;8.00;7.33;;;;;38.51;36.17;100923.81;6307126;22;45497;-96
2022/07/19 09:58:05;;;;;;;;;7.67;6.67;;;;;39.06;35.33;100937.28;6307597;22;45384;-95
2022/07/19 10:00:30;;;;;;;;;7.00;7.00;;;;;39.71;35.67;100951.78;6336348;22;45410;-96
2022/07/19 10:03:07;;;;;;;;;11.00;9.33;;;;;40.21;34.32;100937.84;6309737;22;47746;-96
2022/07/19 10:06:40;;;;;;;;;8.00;8.00;;;;;40.77;35.00;100915.22;6309577;22;45222;-96
2022/07/19 10:09:13;;;;;;;;;7.67;7.67;;;;;41.63;34.65;100918.31;6216018;22;45348;-96
2022/07/19 10:11:45;;;;;;;;;10.33;8.00;;;;;42.44;34.42;100925.16;6220965;22;45413;-96
2022/07/19 10:14:11;;;;;;;;;9.33;8.33;;;;;43.31;33.79;100900.94;6216370;22;48366;-94
2022/07/19 10:17:03;;;;;;;;;9.00;8.00;;;;;44.95;33.45;100923.19;6218591;22;45580;-96
2022/07/19 10:19:42;;;;;;;;;8.67;8.67;;;;;46.88;31.97;100919.28;6213551;22;45409;-95
2022/07/19 10:22:46;;;;;;;;;8.67;8.67;;;;;48.95;29.86;100899.00;6217082;22;45433;-96
2022/07/19 10:25:41;;;;;;;;;8.33;8.33;;;;;50.43;29.62;100906.47;6216519;22;47085;-96
2022/07/19 10:28:37;;;;;;;;;9.33;7.33;;;;;51.33;27.95;100915.72;6215402;22;45441;-96
2022/07/19 10:31:27;;;;;;;;;6.67;6.67;;;;;51.37;26.91;100889.09;6216507;22;45546;-96
2022/07/19 10:34:26;;;;;;;;;8.33;7.33;;;;;51.81;27.75;100896.56;6224369;22;45441;-94
2022/07/19 10:36:55;;;;;;;;;8.33;8.33;;;;;52.28;26.88;100893.25;6218901;22;47139;-96
2022/07/19 10:39:27;;;;;;;;;9.00;7.67;;;;;53.23;26.30;100896.44;6218402;22;45532;-96
2022/07/19 10:42:16;;;;;;;;;8.33;8.33;;;;;54.44;25.10;100890.94;6241291;22;45497;-96
2022/07/19 10:44:59;;;;;;;;;7.00;6.67;;;;;55.57;24.78;100891.53;6310201;22;45616;-96
2022/07/19 10:47:37;;;;;;;;;9.00;8.33;;;;;56.36;24.74;100892.06;6307448;22;47437;-96
2022/07/19 10:50:14;;;;;;;;;7.67;6.00;;;;;57.01;24.40;100893.59;6306649;22;45302;-96
2022/07/19 10:52:42;;;;;;;;;7.00;7.00;;;;;57.98;23.91;100883.25;6335600;22;45494;-96
2022/07/19 10:59:42;;;;;;;;;10.00;9.00;;;;;60.62;21.49;100880.56;6273627;22;46245;-96
2022/07/19 11:04:56;;;;;;;;;9.00;7.50;;;;;62.33;21.43;100870.69;6335915;22;45595;-92
2022/07/19 11:07:23;;;;;;;;;7.00;7.00;;;;;63.08;20.08;100878.19;6333849;22;45669;-90
2022/07/19 11:09:57;;;;;;;;;7.50;6.50;;;;;63.92;20.01;100878.91;6332254;22;45383;-92
2022/07/19 11:12:30;;;;;;;;;7.50;6.00;;;;;64.17;19.72;100876.22;6304929;22;45346;-90
2022/07/19 11:14:57;;;;;;;;;7.75;7.75;;;;;64.60;18.96;100866.28;6332268;22;45362;-90
2022/07/19 11:17:23;;;;;;;;;7.00;7.00;;;;;65.02;18.93;100863.94;6333082;22;45280;-91
2022/07/19 11:20:11;;;;;;;;;8.25;7.00;;;;;65.41;18.30;100869.84;6332471;22;46372;-89
2022/07/19 11:22:40;;;;;;;;;7.25;7.25;;;;;66.19;17.70;100866.03;6332584;22;45332;-90
2022/07/19 11:25:06;;;;;;;;;5.75;5.75;;;;;66.66;18.25;100868.16;6332708;22;45838;-90
2022/07/19 11:27:32;;;;;;;;;6.75;5.75;;;;;67.06;17.69;100854.66;6333495;22;45547;-89
2022/07/19 11:30:00;;;;;;;;;6.00;5.50;;;;;67.37;17.65;100850.34;6332512;22;46162;-89
2022/07/19 11:32:26;;;;;;;;;5.50;5.50;;;;;67.73;17.68;100848.72;6333405;22;45373;-89
2022/07/19 11:35:01;;;;;;;;;6.00;6.00;;;;;68.11;16.90;100846.78;6333107;22;45390;-89
2022/07/19 11:37:29;;;;;;;;;6.00;6.00;;;;;68.35;16.70;100837.00;6333280;22;45243;-88
2022/07/19 11:39:57;;;;;;;;;5.50;5.25;;;;;68.72;16.73;100834.94;6331455;22;46087;-90